Terminal Aerodrome Forecast
Issued by NWS Duluth, MN

Home | Current Version | Previous Version | Text Only | Print | Product List | Glossary On
Versions: 1 2 3 4 5 6 7 8 9 10 11 12 13 14 15 16 17
000
FTUS43 KDLH 290523
TAFINL
TAF
KINL 290523Z 2906/3006 VRB03KT P6SM SCT100
     FM291300 29006KT P6SM VCSH SCT040 BKN070
     FM291600 31010G25KT P6SM VCTS BKN050CB
     FM292000 35010G17KT P6SM VCTS BKN050CB
     FM300300 VRB05KT P6SM SKC=

USA.gov is the U.S. government's official web portal to all federal, state and local government web resources and services.